createdAt,value
2018-04-09T17:54:14.159Z,18.83
2018-04-09T17:55:14.116Z,18.67
2018-04-09T17:56:14.107Z,18.61
2018-04-09T17:57:14.091Z,18.52
2018-04-09T17:58:14.098Z,18.44
2018-04-09T17:59:14.136Z,18.46
2018-04-09T18:00:14.191Z,18.33
2018-04-09T18:01:14.078Z,18.33
2018-04-09T18:02:14.069Z,18.29
2018-04-09T18:03:14.035Z,18.34
2018-04-09T18:04:14.021Z,18.22
2018-04-09T18:05:14.008Z,18.27
2018-04-09T18:06:14.005Z,18.13
2018-04-09T18:07:13.988Z,18.06
2018-04-09T18:08:13.986Z,18.02
2018-04-09T18:09:13.987Z,18.06
2018-04-09T18:10:13.957Z,18.09
2018-04-09T18:11:13.948Z,17.89
2018-04-09T18:12:13.950Z,17.94
2018-04-09T18:13:13.934Z,17.87
2018-04-09T18:14:13.923Z,17.82
2018-04-09T18:15:13.909Z,17.85
2018-04-09T18:16:13.890Z,17.85
2018-04-09T18:17:13.886Z,17.84
2018-04-09T18:18:13.879Z,17.87
2018-04-09T18:19:13.861Z,17.94
2018-04-09T18:20:13.859Z,17.94
2018-04-09T18:21:13.877Z,17.92
2018-04-09T18:22:13.835Z,17.89
2018-04-09T18:23:13.816Z,17.73
2018-04-09T18:24:13.812Z,17.71
2018-04-09T18:25:13.801Z,17.66
2018-04-09T18:26:13.814Z,17.57
2018-04-09T18:27:13.782Z,17.67
2018-04-09T18:28:13.771Z,17.54
2018-04-09T18:29:13.772Z,17.51
2018-04-09T18:30:13.765Z,17.64
2018-04-09T18:31:13.774Z,17.64
2018-04-09T18:32:13.732Z,17.79
2018-04-09T18:33:13.726Z,17.79
2018-04-09T18:34:13.726Z,17.76
2018-04-09T18:35:13.710Z,17.81
2018-04-09T18:36:13.734Z,17.91
2018-04-09T18:37:13.687Z,17.92
2018-04-09T18:38:13.671Z,17.94
2018-04-09T18:39:13.659Z,17.84
2018-04-09T18:40:13.675Z,17.73
2018-04-09T18:41:13.646Z,17.76
2018-04-09T18:42:13.639Z,17.51
2018-04-09T18:43:13.655Z,17.43
2018-04-09T18:44:13.624Z,17.36
2018-04-09T18:45:13.598Z,17.28
2018-04-09T18:46:13.585Z,17.30
2018-04-09T18:47:13.585Z,17.30
2018-04-09T18:48:13.566Z,17.28
2018-04-09T18:49:13.559Z,17.18
2018-04-09T18:50:13.549Z,17.17
2018-04-09T18:51:13.547Z,17.10
2018-04-09T18:52:13.536Z,17.03
2018-04-09T18:53:13.526Z,17.07
2018-04-09T18:54:13.585Z,17.03
2018-04-09T18:55:13.526Z,17.06
2018-04-09T18:56:13.502Z,17.10
2018-04-09T18:57:13.489Z,17.14
2018-04-09T18:58:13.475Z,17.10
2018-04-09T18:59:13.459Z,17.14
2018-04-09T19:00:13.506Z,17.17
2018-04-09T19:01:13.446Z,17.15
2018-04-09T19:02:13.480Z,17.28
2018-04-09T19:03:13.417Z,17.28
2018-04-09T19:04:13.408Z,17.26
2018-04-09T19:05:13.399Z,17.32
2018-04-09T19:06:13.419Z,17.28
2018-04-09T19:07:13.431Z,17.18
2018-04-09T19:08:13.400Z,17.08
2018-04-09T19:09:13.373Z,17.00
2018-04-09T19:10:13.386Z,16.93
2018-04-09T19:11:13.348Z,16.80
2018-04-09T19:12:13.323Z,16.85
2018-04-09T19:13:13.325Z,16.81
2018-04-09T19:14:13.305Z,16.83
2018-04-09T19:15:13.296Z,16.89
2018-04-09T19:16:13.277Z,16.83
2018-04-09T19:17:13.290Z,16.85
2018-04-09T19:18:13.290Z,16.85
2018-04-09T19:19:13.287Z,16.71
2018-04-09T19:20:13.273Z,16.52
2018-04-09T19:21:13.286Z,16.41
2018-04-09T19:22:13.251Z,16.27
2018-04-09T19:23:13.236Z,16.49
2018-04-09T19:24:13.197Z,16.31
2018-04-09T19:25:13.239Z,16.38
2018-04-09T19:26:13.197Z,16.42
2018-04-09T19:27:13.166Z,16.52
2018-04-09T19:28:13.162Z,16.55
2018-04-09T19:29:13.168Z,16.60
2018-04-09T19:30:13.181Z,16.53
2018-04-09T19:31:13.184Z,16.56
2018-04-09T19:32:13.134Z,16.48
2018-04-09T19:33:13.137Z,16.52
2018-04-09T19:34:13.092Z,16.55
2018-04-09T19:35:13.085Z,16.48
2018-04-09T19:36:13.096Z,16.50
2018-04-09T19:37:13.073Z,16.48
2018-04-09T19:38:13.061Z,16.45
2018-04-09T19:39:13.057Z,16.37
2018-04-09T19:40:13.080Z,16.42
2018-04-09T19:41:13.025Z,16.40
2018-04-09T19:42:13.035Z,16.37
2018-04-09T19:43:13.003Z,16.37
2018-04-09T19:44:13.012Z,16.27
2018-04-09T19:45:12.977Z,16.27
2018-04-09T19:46:12.977Z,16.25
2018-04-09T19:47:12.970Z,16.20
2018-04-09T19:48:12.970Z,16.25
2018-04-09T19:49:12.951Z,16.26
2018-04-09T19:50:12.941Z,16.31
2018-04-09T19:51:12.939Z,16.35
2018-04-09T19:52:12.906Z,16.27
2018-04-09T19:53:12.907Z,16.30
2018-04-09T19:54:12.884Z,16.30
2018-04-09T19:55:12.871Z,16.27
2018-04-09T19:56:12.875Z,16.34
2018-04-09T19:57:12.859Z,16.26
2018-04-09T19:58:12.834Z,16.27
2018-04-09T19:59:12.862Z,16.22
2018-04-09T20:00:12.830Z,16.27
2018-04-09T20:01:12.808Z,16.14
2018-04-09T20:02:12.785Z,16.00
2018-04-09T20:03:12.816Z,15.96
2018-04-09T20:04:12.788Z,15.89
2018-04-09T20:05:12.766Z,15.96
2018-04-09T20:06:12.760Z,15.85
2018-04-09T20:07:12.732Z,15.89
2018-04-09T20:08:12.726Z,15.92
2018-04-09T20:09:12.726Z,16.00
2018-04-09T20:10:12.713Z,16.09
2018-04-09T20:11:12.707Z,16.01
2018-04-09T20:12:12.684Z,16.01
2018-04-09T20:13:12.662Z,15.92
2018-04-09T20:14:12.659Z,15.89
2018-04-09T20:15:12.659Z,16.00
2018-04-09T20:16:12.630Z,15.89
2018-04-09T20:17:12.640Z,16.01
2018-04-09T20:18:12.608Z,15.88
2018-04-09T20:19:12.600Z,15.88
2018-04-09T20:20:12.592Z,15.93
2018-04-09T20:21:12.586Z,15.88
2018-04-09T20:22:12.567Z,15.88
2018-04-09T20:23:12.565Z,15.94
2018-04-09T20:24:12.560Z,15.94
2018-04-09T20:25:12.526Z,15.86
2018-04-09T20:26:12.522Z,15.99
2018-04-09T20:27:12.554Z,15.81
2018-04-09T20:28:12.573Z,15.78
2018-04-09T20:29:12.513Z,15.72
2018-04-09T20:30:12.490Z,15.75
2018-04-09T20:31:12.473Z,15.67
2018-04-09T20:32:12.494Z,15.49
2018-04-09T20:33:12.449Z,15.59
2018-04-09T20:34:12.447Z,15.49
2018-04-09T20:35:12.429Z,15.45
2018-04-09T20:36:12.413Z,15.39
2018-04-09T20:37:12.426Z,15.33
2018-04-09T20:38:12.417Z,15.23
2018-04-09T20:39:12.391Z,15.09
2018-04-09T20:40:12.382Z,15.05
2018-04-09T20:41:12.521Z,15.08
2018-04-09T20:42:12.463Z,14.90
2018-04-09T20:43:12.402Z,14.78
2018-04-09T20:44:12.404Z,14.72
2018-04-09T20:45:12.350Z,14.65
2018-04-09T20:46:12.488Z,14.62
2018-04-09T20:47:12.475Z,14.62
2018-04-09T20:48:12.459Z,14.65
2018-04-09T20:49:12.240Z,14.54
2018-04-09T20:50:12.307Z,14.54
2018-04-09T20:51:12.282Z,14.67
2018-04-09T20:52:12.237Z,14.68
2018-04-09T20:53:12.287Z,14.65
2018-04-09T20:54:12.225Z,14.64
2018-04-09T20:55:12.297Z,14.68
2018-04-09T20:56:12.202Z,14.60
2018-04-09T20:57:12.144Z,14.65
2018-04-09T20:58:12.133Z,14.68
2018-04-09T20:59:12.163Z,14.80
2018-04-09T21:00:12.126Z,14.78
2018-04-09T21:01:12.110Z,14.60
2018-04-09T21:02:12.117Z,14.65
2018-04-09T21:03:12.091Z,14.62
2018-04-09T21:04:12.072Z,14.57
2018-04-09T21:05:12.084Z,14.52
2018-04-09T21:06:12.101Z,14.46
2018-04-09T21:07:21.703Z,14.42
2018-04-09T21:09:05.809Z,14.24
2018-04-09T21:10:05.714Z,14.24
2018-04-09T21:11:06.345Z,14.17
2018-04-09T21:12:15.501Z,14.17
2018-04-09T21:13:59.426Z,14.14
2018-04-09T21:14:58.682Z,14.10
2018-04-09T21:15:58.645Z,14.14
2018-04-09T21:16:58.651Z,14.12
2018-04-09T21:17:58.907Z,14.14
2018-04-09T21:18:59.461Z,14.12
2018-04-09T21:19:58.841Z,14.16
2018-04-09T21:20:58.913Z,14.04
2018-04-09T21:21:58.590Z,13.95
2018-04-09T21:22:58.437Z,13.95
2018-04-09T21:23:58.424Z,13.92
2018-04-09T21:24:58.386Z,13.87
2018-04-09T21:25:58.408Z,13.87
2018-04-09T21:26:58.376Z,13.83
2018-04-09T21:27:58.351Z,13.76
2018-04-09T21:28:58.315Z,13.65
2018-04-09T21:29:58.368Z,13.69
2018-04-09T21:30:58.292Z,13.73
2018-04-09T21:31:58.317Z,13.67
2018-04-09T21:32:58.308Z,13.70
2018-04-09T21:33:58.305Z,13.69
2018-04-09T21:34:58.270Z,13.59
2018-04-09T21:35:58.256Z,13.62
2018-04-09T21:36:58.257Z,13.55
2018-04-09T21:37:58.211Z,13.73
2018-04-09T21:38:58.245Z,13.59
2018-04-09T21:39:58.166Z,13.52
2018-04-09T21:40:58.156Z,13.54
2018-04-09T21:41:58.198Z,13.46
2018-04-09T21:42:58.170Z,13.36
2018-04-09T21:43:58.160Z,13.30
2018-04-09T21:44:58.153Z,13.30
2018-04-09T21:45:58.179Z,13.36
2018-04-09T21:46:58.129Z,13.29
2018-04-09T21:47:58.141Z,13.22
2018-04-09T21:48:58.081Z,13.15
2018-04-09T21:49:58.081Z,13.12
2018-04-09T21:50:58.020Z,13.27
2018-04-09T21:51:58.030Z,13.24
2018-04-09T21:52:58.042Z,13.29
2018-04-09T21:53:57.988Z,13.17
2018-04-09T21:54:57.991Z,13.22
2018-04-09T21:55:58.023Z,13.07
2018-04-09T21:56:57.973Z,13.04
2018-04-09T21:57:57.965Z,12.97
2018-04-09T21:58:57.944Z,13.02
2018-04-09T21:59:57.903Z,13.00
2018-04-09T22:00:57.944Z,13.06
2018-04-09T22:01:57.907Z,13.04
2018-04-09T22:02:57.918Z,13.09
2018-04-09T22:03:57.935Z,12.99
2018-04-09T22:04:57.859Z,12.92
2018-04-09T22:05:57.849Z,12.96
2018-04-09T22:06:57.852Z,12.93
2018-04-09T22:07:57.826Z,12.89
2018-04-09T22:08:57.814Z,12.89
2018-04-09T22:09:57.781Z,12.84
2018-04-09T22:10:57.823Z,12.99
2018-04-09T22:11:57.785Z,12.87
2018-04-09T22:12:57.768Z,12.78
2018-04-09T22:13:57.713Z,12.70
2018-04-09T22:14:57.735Z,12.69
2018-04-09T22:15:57.691Z,12.63
2018-04-09T22:16:57.706Z,12.67
2018-04-09T22:17:57.701Z,12.71
2018-04-09T22:18:57.675Z,12.77
2018-04-09T22:19:57.694Z,12.81
2018-04-09T22:20:57.629Z,12.81
2018-04-09T22:21:57.642Z,12.79
2018-04-09T22:22:57.617Z,12.85
2018-04-09T22:23:57.629Z,12.84
2018-04-09T22:24:57.632Z,12.97
2018-04-09T22:25:57.559Z,13.02
2018-04-09T22:26:57.569Z,12.88
2018-04-09T22:27:57.556Z,12.89
2018-04-09T22:28:57.510Z,12.96
2018-04-09T22:29:57.516Z,12.89
2018-04-09T22:30:57.481Z,12.97
2018-04-09T22:31:57.522Z,12.96
2018-04-09T22:32:57.455Z,12.85
2018-04-09T22:33:57.436Z,12.85
2018-04-09T22:34:57.427Z,12.85
2018-04-09T22:35:57.423Z,12.93
2018-04-09T22:36:57.395Z,12.84
2018-04-09T22:37:57.429Z,12.71
2018-04-09T22:38:57.404Z,12.74
2018-04-09T22:39:57.391Z,12.74
2018-04-09T22:40:57.333Z,12.77
2018-04-09T22:41:57.391Z,12.75
2018-04-09T22:42:57.333Z,12.75
2018-04-09T22:43:57.359Z,12.67
2018-04-09T22:44:57.310Z,12.70
2018-04-09T22:45:57.285Z,12.69
2018-04-09T22:46:57.278Z,12.75
2018-04-09T22:47:57.253Z,12.77
2018-04-09T22:48:57.400Z,12.70
2018-04-09T22:49:57.272Z,12.69
2018-04-09T22:50:57.236Z,12.64
2018-04-09T22:51:57.234Z,12.49
2018-04-09T22:52:57.202Z,12.41
2018-04-09T22:53:58.800Z,12.44
2018-04-09T22:54:57.218Z,12.44
2018-04-09T22:55:57.191Z,12.39
2018-04-09T22:56:57.170Z,12.54
2018-04-09T22:57:57.148Z,12.45
2018-04-09T22:58:57.151Z,12.39
2018-04-09T22:59:57.144Z,12.44
2018-04-09T23:00:57.070Z,12.46
2018-04-09T23:01:57.132Z,12.37
2018-04-09T23:02:57.038Z,12.30
2018-04-09T23:03:57.078Z,12.34
2018-04-09T23:04:57.051Z,12.29
2018-04-09T23:05:57.064Z,12.27
2018-04-09T23:06:57.055Z,12.15
2018-04-09T23:07:57.039Z,12.21
2018-04-09T23:08:56.963Z,12.27
2018-04-09T23:09:57.007Z,12.23
2018-04-09T23:10:56.929Z,12.16
2018-04-09T23:11:57.006Z,12.23
2018-04-09T23:12:56.907Z,12.20
2018-04-09T23:13:56.923Z,12.29
2018-04-09T23:14:56.910Z,12.30
2018-04-09T23:15:56.942Z,12.31
2018-04-09T23:16:56.850Z,12.30
2018-04-09T23:17:56.873Z,12.42
2018-04-09T23:18:56.837Z,12.48
2018-04-09T23:19:56.873Z,12.45
2018-04-09T23:20:56.833Z,12.41
2018-04-09T23:21:56.795Z,12.44
2018-04-09T23:22:56.808Z,12.49
2018-04-09T23:23:56.769Z,12.57
2018-04-09T23:24:56.798Z,12.56
2018-04-09T23:25:56.772Z,12.57
2018-04-09T23:26:56.760Z,12.63
2018-04-09T23:27:56.708Z,12.49
2018-04-09T23:28:56.782Z,12.51
2018-04-09T23:29:56.717Z,12.44
2018-04-09T23:30:56.766Z,12.42
2018-04-09T23:31:56.653Z,12.37
2018-04-09T23:32:56.649Z,12.33
2018-04-09T23:33:56.637Z,12.31
2018-04-09T23:34:56.710Z,12.26
2018-04-09T23:35:57.327Z,12.33
2018-04-09T23:36:56.583Z,12.27
2018-04-09T23:37:56.570Z,12.24
2018-04-09T23:38:56.538Z,12.20
2018-04-09T23:39:56.537Z,12.30
2018-04-09T23:40:56.520Z,12.29
2018-04-09T23:41:56.516Z,12.29
2018-04-09T23:42:56.559Z,12.30
2018-04-09T23:43:56.523Z,12.23
2018-04-09T23:44:56.526Z,12.27
2018-04-09T23:45:56.456Z,12.12
2018-04-09T23:46:56.469Z,12.13
2018-04-09T23:47:56.481Z,12.11
2018-04-09T23:48:56.438Z,12.09
2018-04-09T23:49:56.402Z,12.04
2018-04-09T23:50:56.451Z,12.05
2018-04-09T23:51:56.392Z,12.01
2018-04-09T23:52:56.332Z,12.06
2018-04-09T23:53:56.338Z,11.96
2018-04-09T23:54:56.338Z,12.04
2018-04-09T23:55:56.344Z,12.02
2018-04-09T23:56:56.313Z,12.04
2018-04-09T23:57:56.312Z,12.19
2018-04-09T23:58:56.329Z,12.20
2018-04-09T23:59:56.318Z,12.20
